Terminal Aerodrome Forecast
Issued by NWS Atlanta, GA

Home | Current Version | Previous Version | Text Only | Print | Product List | Glossary On
Versions: 1 2 3 4 5 6 7 8 9 10 11 12 13 14 15 16 17
994
FTUS42 KFFC 292327
TAFCSG
TAF
KCSG 292327Z 3000/3024 32004KT P6SM SCT120 BKN250
     FM300800 00000KT P6SM SCT015 BKN120
     FM301400 29005KT P6SM SCT025
     FM301600 29009KT P6SM BKN040 PROB30 3018/3024 4SM -TSRA
      BKN020CB=

USA.gov is the U.S. government's official web portal to all federal, state and local government web resources and services.